createdAt,value
2022-11-23T06:16:18.846Z,158.29
2022-11-23T06:26:18.754Z,154.48
2022-11-23T06:36:19.022Z,157.77
2022-11-23T06:46:18.972Z,156.30
2022-11-23T06:56:19.032Z,150.29
2022-11-23T07:06:18.922Z,151.15
2022-11-23T07:16:18.893Z,155.58
2022-11-23T07:26:18.971Z,156.37
2022-11-23T07:36:18.905Z,144.93
2022-11-23T07:46:18.834Z,149.18
2022-11-23T07:56:18.894Z,152.24
2022-11-23T08:06:18.944Z,150.06
2022-11-23T08:16:19.053Z,158.35
2022-11-23T08:26:19.013Z,157.75
2022-11-23T08:36:19.073Z,147.11
2022-11-23T08:46:19.206Z,154.66
2022-11-23T08:56:19.317Z,146.76
2022-11-23T09:06:19.231Z,144.94
2022-11-23T09:16:19.271Z,148.13
2022-11-23T09:26:19.150Z,147.43
2022-11-23T09:36:19.264Z,169.92
2022-11-23T09:46:20.214Z,169.18
2022-11-23T09:56:19.102Z,167.88
2022-11-23T10:06:19.273Z,169.98
2022-11-23T10:16:19.333Z,173.83
2022-11-23T10:26:19.235Z,176.41
2022-11-23T10:36:19.203Z,178.56
2022-11-23T10:46:19.273Z,173.02
2022-11-23T10:56:19.174Z,162.67
2022-11-23T11:06:19.273Z,165.96
2022-11-23T11:16:19.419Z,172.42
2022-11-23T11:26:19.293Z,170.66
2022-11-23T11:36:19.300Z,162.63
2022-11-23T11:46:29.918Z,163.76
2022-11-23T11:56:19.304Z,169.77
2022-11-23T12:06:23.644Z,163.39
2022-11-23T12:16:19.185Z,147.86
2022-11-23T12:26:19.265Z,165.28
2022-11-23T12:36:22.357Z,151.87
2022-11-23T12:46:19.055Z,148.94
2022-11-23T12:56:19.261Z,152.07
2022-11-23T13:06:19.301Z,169.67
2022-11-23T13:16:19.414Z,168.47
2022-11-23T13:26:19.273Z,153.01
2022-11-23T13:36:20.039Z,149.94
2022-11-23T13:46:19.528Z,160.13
2022-11-23T13:56:19.440Z,163.59
2022-11-23T14:06:19.395Z,154.10
2022-11-23T14:16:19.333Z,139.38
2022-11-23T14:26:19.279Z,146.82
2022-11-23T14:36:19.248Z,150.53
2022-11-23T14:46:19.594Z,135.40
2022-11-23T14:56:19.139Z,123.88
2022-11-23T15:06:19.196Z,95.67
2022-11-23T15:16:19.450Z,96.06
2022-11-23T15:26:41.834Z,135.38
2022-11-23T15:36:19.349Z,132.71
2022-11-23T15:46:19.307Z,134.97
2022-11-23T15:56:19.378Z,151.57
2022-11-23T16:06:19.178Z,146.63
2022-11-23T16:16:19.430Z,142.00
2022-11-23T16:26:19.088Z,104.94
2022-11-23T16:36:19.302Z,110.71
2022-11-23T16:46:19.396Z,92.95
2022-11-23T16:56:19.176Z,90.00
2022-11-23T17:06:19.327Z,90.06
2022-11-23T17:16:19.321Z,118.31
2022-11-23T17:26:19.271Z,119.25
2022-11-23T17:36:19.212Z,131.83
2022-11-23T17:46:19.286Z,147.33
2022-11-23T17:56:19.329Z,135.73
2022-11-23T18:06:19.371Z,145.96
2022-11-23T18:16:19.341Z,135.65
2022-11-23T18:26:19.419Z,143.75
2022-11-23T18:36:19.434Z,125.65
2022-11-23T18:46:19.775Z,110.77
2022-11-23T18:56:19.722Z,137.25
2022-11-23T19:06:19.930Z,134.73
2022-11-23T19:16:20.208Z,130.24
